sensor_id;sensor_type;location;lat;lon;timestamp;pressure;altitude;pressure_sealevel;temperature;humidity
77159;BME280;66129;45.890;13.714;2023-05-07T00:03:00;100943.44;;;12.84;91.25
77159;BME280;66129;45.890;13.714;2023-05-07T00:05:49;101000.97;;;12.89;90.96
77159;BME280;66129;45.890;13.714;2023-05-07T00:08:17;100961.06;;;12.59;91.28
77159;BME280;66129;45.890;13.714;2023-05-07T00:10:42;101024.28;;;12.98;90.45
77159;BME280;66129;45.890;13.714;2023-05-07T00:13:08;100980.34;;;12.88;89.86
77159;BME280;66129;45.890;13.714;2023-05-07T00:15:33;100976.97;;;12.90;89.43
77159;BME280;66129;45.890;13.714;2023-05-07T00:18:04;100995.19;;;13.05;89.19
77159;BME280;66129;45.890;13.714;2023-05-07T00:20:40;100924.28;;;12.64;89.51
77159;BME280;66129;45.890;13.714;2023-05-07T00:23:05;100983.13;;;13.00;89.52
77159;BME280;66129;45.890;13.714;2023-05-07T00:25:37;100945.69;;;12.63;90.10
77159;BME280;66129;45.890;13.714;2023-05-07T00:28:05;100933.16;;;12.26;91.70
77159;BME280;66129;45.890;13.714;2023-05-07T04:57:54;100954.13;;;13.93;84.93
77159;BME280;66129;45.890;13.714;2023-05-07T05:04:19;100959.06;;;14.68;82.67
77159;BME280;66129;45.890;13.714;2023-05-07T05:06:50;100991.91;;;14.99;81.78
77159;BME280;66129;45.890;13.714;2023-05-07T05:09:24;100953.19;;;14.96;80.76
77159;BME280;66129;45.890;13.714;2023-05-07T05:11:50;101038.66;;;15.41;81.00
77159;BME280;66129;45.890;13.714;2023-05-07T05:14:29;101005.53;;;14.74;82.14
77159;BME280;66129;45.890;13.714;2023-05-07T05:17:08;101011.50;;;14.64;83.01
77159;BME280;66129;45.890;13.714;2023-05-07T05:19:34;101016.69;;;14.67;83.61
77159;BME280;66129;45.890;13.714;2023-05-07T05:22:01;101014.97;;;14.71;83.56
77159;BME280;66129;45.890;13.714;2023-05-07T05:24:31;101015.72;;;14.58;83.98
77159;BME280;66129;45.890;13.714;2023-05-07T05:30:41;101044.50;;;15.18;82.50
77159;BME280;66129;45.890;13.714;2023-05-07T05:36:32;100988.75;;;15.63;78.52
77159;BME280;66129;45.890;13.714;2023-05-07T05:38:58;101047.53;;;16.94;75.81
77159;BME280;66129;45.890;13.714;2023-05-07T05:41:32;100982.75;;;17.01;71.87
77159;BME280;66129;45.890;13.714;2023-05-07T05:43:58;101039.53;;;17.72;71.18
77159;BME280;66129;45.890;13.714;2023-05-07T05:46:26;100978.09;;;17.78;69.53
77159;BME280;66129;45.890;13.714;2023-05-07T05:48:51;100983.53;;;18.62;66.66
77159;BME280;66129;45.890;13.714;2023-05-07T05:51:17;101060.78;;;19.29;64.48
77159;BME280;66129;45.890;13.714;2023-05-07T05:53:42;101025.94;;;19.47;63.93
77159;BME280;66129;45.890;13.714;2023-05-07T05:56:13;101009.00;;;19.81;62.31
77159;BME280;66129;45.890;13.714;2023-05-07T05:58:41;101022.69;;;19.93;62.30
77159;BME280;66129;45.890;13.714;2023-05-07T06:01:07;100981.13;;;20.43;60.81
77159;BME280;66129;45.890;13.714;2023-05-07T06:03:33;101020.84;;;21.07;60.13
77159;BME280;66129;45.890;13.714;2023-05-07T06:05:58;100968.28;;;21.28;56.95
77159;BME280;66129;45.890;13.714;2023-05-07T06:08:29;100973.91;;;21.07;57.78
77159;BME280;66129;45.890;13.714;2023-05-07T06:11:01;101008.84;;;21.40;57.39
77159;BME280;66129;45.890;13.714;2023-05-07T06:13:28;100963.75;;;21.35;56.51
77159;BME280;66129;45.890;13.714;2023-05-07T06:16:05;101009.72;;;21.41;56.95
77159;BME280;66129;45.890;13.714;2023-05-07T06:18:31;100969.59;;;21.06;56.21
77159;BME280;66129;45.890;13.714;2023-05-07T06:21:09;100955.69;;;20.60;58.03
77159;BME280;66129;45.890;13.714;2023-05-07T06:23:58;100972.91;;;20.17;59.80
77159;BME280;66129;45.890;13.714;2023-05-07T06:26:23;100986.59;;;19.71;61.99
77159;BME280;66129;45.890;13.714;2023-05-07T06:28:49;100984.25;;;19.51;62.27
77159;BME280;66129;45.890;13.714;2023-05-07T06:31:44;101054.75;;;19.95;62.97
77159;BME280;66129;45.890;13.714;2023-05-07T06:34:21;100976.84;;;19.83;63.30
77159;BME280;66129;45.890;13.714;2023-05-07T06:36:47;101018.81;;;20.22;64.08
77159;BME280;66129;45.890;13.714;2023-05-07T06:39:12;100975.34;;;20.76;62.69
77159;BME280;66129;45.890;13.714;2023-05-07T06:41:43;101046.75;;;22.38;58.33
77159;BME280;66129;45.890;13.714;2023-05-07T06:44:14;101014.56;;;23.03;56.29
77159;BME280;66129;45.890;13.714;2023-05-07T06:46:42;101019.94;;;23.59;54.13
77159;BME280;66129;45.890;13.714;2023-05-07T06:49:10;100991.91;;;24.19;52.00
77159;BME280;66129;45.890;13.714;2023-05-07T06:51:38;100995.47;;;24.70;50.03
77159;BME280;66129;45.890;13.714;2023-05-07T06:54:26;101011.88;;;25.00;50.37
77159;BME280;66129;45.890;13.714;2023-05-07T07:03:34;100989.22;;;25.45;46.20
77159;BME280;66129;45.890;13.714;2023-05-07T07:06:12;101009.94;;;25.98;45.44
77159;BME280;66129;45.890;13.714;2023-05-07T07:08:37;101033.47;;;26.23;45.69
77159;BME280;66129;45.890;13.714;2023-05-07T07:11:17;101009.56;;;26.07;45.11
77159;BME280;66129;45.890;13.714;2023-05-07T07:13:43;100984.16;;;26.28;45.74
77159;BME280;66129;45.890;13.714;2023-05-07T07:16:10;101009.38;;;26.95;44.79
77159;BME280;66129;45.890;13.714;2023-05-07T07:18:36;100974.66;;;26.87;44.42
77159;BME280;66129;45.890;13.714;2023-05-07T07:21:02;100985.97;;;26.89;43.89
77159;BME280;66129;45.890;13.714;2023-05-07T07:23:27;100974.72;;;27.05;42.55
77159;BME280;66129;45.890;13.714;2023-05-07T07:26:00;100979.13;;;27.43;42.83
77159;BME280;66129;45.890;13.714;2023-05-07T07:28:31;100977.38;;;27.80;42.59
77159;BME280;66129;45.890;13.714;2023-05-07T07:31:01;101006.97;;;27.68;42.62
77159;BME280;66129;45.890;13.714;2023-05-07T07:33:47;101010.06;;;27.95;43.44
77159;BME280;66129;45.890;13.714;2023-05-07T07:36:14;101010.00;;;27.96;42.77
77159;BME280;66129;45.890;13.714;2023-05-07T07:38:40;100974.47;;;27.68;43.12
77159;BME280;66129;45.890;13.714;2023-05-07T07:41:09;100978.22;;;27.62;39.83
77159;BME280;66129;45.890;13.714;2023-05-07T07:43:50;101007.91;;;28.03;40.78
77159;BME280;66129;45.890;13.714;2023-05-07T07:46:19;100966.38;;;28.25;39.58
77159;BME280;66129;45.890;13.714;2023-05-07T07:48:57;100982.81;;;28.82;37.58
77159;BME280;66129;45.890;13.714;2023-05-07T07:51:27;101000.97;;;29.22;37.38
77159;BME280;66129;45.890;13.714;2023-05-07T07:53:55;100966.06;;;29.32;36.34
77159;BME280;66129;45.890;13.714;2023-05-07T07:56:23;100967.47;;;29.22;36.23
77159;BME280;66129;45.890;13.714;2023-05-07T07:58:51;101018.13;;;29.62;37.13
77159;BME280;66129;45.890;13.714;2023-05-07T08:01:18;100970.97;;;29.70;34.94
77159;BME280;66129;45.890;13.714;2023-05-07T08:03:55;101003.75;;;29.99;35.71
77159;BME280;66129;45.890;13.714;2023-05-07T08:06:25;100972.34;;;29.62;35.11
77159;BME280;66129;45.890;13.714;2023-05-07T08:08:51;100981.44;;;29.56;36.14
77159;BME280;66129;45.890;13.714;2023-05-07T08:11:17;100974.25;;;30.06;34.73
77159;BME280;66129;45.890;13.714;2023-05-07T08:13:42;100983.72;;;30.40;35.07
77159;BME280;66129;45.890;13.714;2023-05-07T08:16:08;100985.75;;;30.79;33.09
77159;BME280;66129;45.890;13.714;2023-05-07T08:18:33;100996.94;;;30.84;35.45
77159;BME280;66129;45.890;13.714;2023-05-07T08:20:59;101028.63;;;31.29;32.20
77159;BME280;66129;45.890;13.714;2023-05-07T08:23:27;101011.91;;;30.99;34.39
77159;BME280;66129;45.890;13.714;2023-05-07T08:25:55;101007.13;;;31.34;32.91
77159;BME280;66129;45.890;13.714;2023-05-07T08:28:20;101031.56;;;31.53;31.28
77159;BME280;66129;45.890;13.714;2023-05-07T08:30:46;101035.72;;;31.29;32.90
77159;BME280;66129;45.890;13.714;2023-05-07T08:33:12;101013.31;;;31.62;33.38
77159;BME280;66129;45.890;13.714;2023-05-07T08:35:37;101006.75;;;30.53;33.95
77159;BME280;66129;45.890;13.714;2023-05-07T08:38:03;101015.81;;;31.08;33.21
77159;BME280;66129;45.890;13.714;2023-05-07T08:40:47;100979.22;;;31.70;33.36
77159;BME280;66129;45.890;13.714;2023-05-07T08:43:26;101032.84;;;32.01;31.09
77159;BME280;66129;45.890;13.714;2023-05-07T08:45:53;100971.88;;;31.88;30.16
77159;BME280;66129;45.890;13.714;2023-05-07T08:48:22;101010.44;;;32.46;31.64
77159;BME280;66129;45.890;13.714;2023-05-07T08:50:50;100973.91;;;32.37;29.90
77159;BME280;66129;45.890;13.714;2023-05-07T08:53:17;101022.16;;;32.82;30.28
77159;BME280;66129;45.890;13.714;2023-05-07T08:55:43;100979.78;;;32.01;30.37
77159;BME280;66129;45.890;13.714;2023-05-07T08:58:13;100965.28;;;31.67;31.78
77159;BME280;66129;45.890;13.714;2023-05-07T09:00:39;100982.63;;;31.44;32.50
77159;BME280;66129;45.890;13.714;2023-05-07T09:03:06;101004.94;;;31.54;31.63
77159;BME280;66129;45.890;13.714;2023-05-07T09:05:31;100967.00;;;31.40;30.79
77159;BME280;66129;45.890;13.714;2023-05-07T09:08:14;100963.69;;;31.64;30.53
77159;BME280;66129;45.890;13.714;2023-05-07T09:10:40;100986.97;;;31.73;30.99
77159;BME280;66129;45.890;13.714;2023-05-07T09:13:05;101027.53;;;32.15;30.01
77159;BME280;66129;45.890;13.714;2023-05-07T09:15:31;100999.03;;;32.31;29.30
77159;BME280;66129;45.890;13.714;2023-05-07T09:18:00;100961.50;;;31.97;28.55
77159;BME280;66129;45.890;13.714;2023-05-07T09:20:30;100986.97;;;31.99;29.73
77159;BME280;66129;45.890;13.714;2023-05-07T09:22:56;100978.00;;;32.02;31.28
77159;BME280;66129;45.890;13.714;2023-05-07T09:25:29;100961.00;;;31.50;32.91
77159;BME280;66129;45.890;13.714;2023-05-07T09:27:58;100977.13;;;31.47;30.80
77159;BME280;66129;45.890;13.714;2023-05-07T09:30:30;100990.16;;;31.50;30.81
77159;BME280;66129;45.890;13.714;2023-05-07T09:32:57;101000.56;;;31.95;30.55
77159;BME280;66129;45.890;13.714;2023-05-07T09:35:23;100991.91;;;32.05;29.83
77159;BME280;66129;45.890;13.714;2023-05-07T09:37:58;100999.16;;;31.89;28.16
77159;BME280;66129;45.890;13.714;2023-05-07T09:40:29;101003.66;;;32.81;29.54
77159;BME280;66129;45.890;13.714;2023-05-07T09:42:55;100984.50;;;32.76;27.83
77159;BME280;66129;45.890;13.714;2023-05-07T09:45:28;100953.66;;;32.61;27.19
77159;BME280;66129;45.890;13.714;2023-05-07T09:47:55;100961.09;;;32.56;28.23
77159;BME280;66129;45.890;13.714;2023-05-07T09:50:29;100996.63;;;32.80;27.75
77159;BME280;66129;45.890;13.714;2023-05-07T09:52:56;101011.09;;;32.88;28.18
77159;BME280;66129;45.890;13.714;2023-05-07T09:55:22;101014.94;;;32.05;27.66
77159;BME280;66129;45.890;13.714;2023-05-07T09:57:52;100988.56;;;31.76;26.82
77159;BME280;66129;45.890;13.714;2023-05-07T10:00:21;101014.72;;;32.22;26.03
77159;BME280;66129;45.890;13.714;2023-05-07T10:02:49;101012.16;;;32.86;27.06
77159;BME280;66129;45.890;13.714;2023-05-07T10:05:19;100970.38;;;32.36;26.22
77159;BME280;66129;45.890;13.714;2023-05-07T10:07:48;100976.88;;;33.08;26.56
77159;BME280;66129;45.890;13.714;2023-05-07T10:10:15;100982.59;;;32.78;26.42
77159;BME280;66129;45.890;13.714;2023-05-07T10:12:43;100975.47;;;32.66;25.95
77159;BME280;66129;45.890;13.714;2023-05-07T10:15:15;100972.94;;;33.02;26.00
77159;BME280;66129;45.890;13.714;2023-05-07T10:17:51;100947.56;;;33.22;24.36
77159;BME280;66129;45.890;13.714;2023-05-07T10:20:23;100971.56;;;33.21;26.09
77159;BME280;66129;45.890;13.714;2023-05-07T10:22:51;101014.81;;;33.85;25.37
77159;BME280;66129;45.890;13.714;2023-05-07T10:25:38;100979.97;;;33.40;23.83
77159;BME280;66129;45.890;13.714;2023-05-07T10:28:08;100951.81;;;32.88;22.52
77159;BME280;66129;45.890;13.714;2023-05-07T10:33:24;100998.06;;;33.22;25.44
77159;BME280;66129;45.890;13.714;2023-05-07T10:36:12;100941.94;;;32.51;25.41
77159;BME280;66129;45.890;13.714;2023-05-07T10:38:39;100945.19;;;33.05;25.62
77159;BME280;66129;45.890;13.714;2023-05-07T10:41:07;100949.34;;;33.09;24.61
77159;BME280;66129;45.890;13.714;2023-05-07T10:43:43;100941.81;;;33.28;23.05
77159;BME280;66129;45.890;13.714;2023-05-07T10:46:17;100967.78;;;33.73;22.08
77159;BME280;66129;45.890;13.714;2023-05-07T10:51:40;100921.44;;;33.65;24.35
77159;BME280;66129;45.890;13.714;2023-05-07T10:57:53;100996.63;;;33.04;20.20
77159;BME280;66129;45.890;13.714;2023-05-07T11:00:41;100972.72;;;32.41;26.03
77159;BME280;66129;45.890;13.714;2023-05-07T11:03:07;100984.13;;;31.62;22.31
77159;BME280;66129;45.890;13.714;2023-05-07T11:05:35;100947.25;;;30.74;23.58
77159;BME280;66129;45.890;13.714;2023-05-07T11:08:24;100988.28;;;30.22;23.74
77159;BME280;66129;45.890;13.714;2023-05-07T11:11:01;100958.44;;;29.74;23.52
77159;BME280;66129;45.890;13.714;2023-05-07T11:13:42;100984.22;;;30.01;24.02
77159;BME280;66129;45.890;13.714;2023-05-07T11:16:36;100997.44;;;30.01;24.08
77159;BME280;66129;45.890;13.714;2023-05-07T11:22:36;100993.84;;;29.07;24.47
77159;BME280;66129;45.890;13.714;2023-05-07T11:31:55;100931.06;;;27.56;24.27
77159;BME280;66129;45.890;13.714;2023-05-07T11:34:44;100940.00;;;27.35;20.50
77159;BME280;66129;45.890;13.714;2023-05-07T11:37:17;100933.41;;;26.87;20.31
77159;BME280;66129;45.890;13.714;2023-05-07T11:39:45;100936.94;;;27.26;21.52
77159;BME280;66129;45.890;13.714;2023-05-07T11:42:38;100924.16;;;27.17;22.30
77159;BME280;66129;45.890;13.714;2023-05-07T11:45:22;100935.66;;;27.34;22.17
77159;BME280;66129;45.890;13.714;2023-05-07T11:56:46;100920.56;;;27.92;20.88
77159;BME280;66129;45.890;13.714;2023-05-07T11:59:17;100966.00;;;28.15;21.17
77159;BME280;66129;45.890;13.714;2023-05-07T12:01:45;100972.16;;;28.49;22.46
77159;BME280;66129;45.890;13.714;2023-05-07T12:04:19;100962.03;;;28.24;22.90
77159;BME280;66129;45.890;13.714;2023-05-07T12:06:45;100945.25;;;28.26;24.91
77159;BME280;66129;45.890;13.714;2023-05-07T12:09:11;100961.34;;;28.20;24.24
77159;BME280;66129;45.890;13.714;2023-05-07T12:11:37;100966.38;;;28.08;26.29
77159;BME280;66129;45.890;13.714;2023-05-07T12:14:18;100917.78;;;27.78;23.51
77159;BME280;66129;45.890;13.714;2023-05-07T12:19:58;100977.97;;;27.87;24.53
77159;BME280;66129;45.890;13.714;2023-05-07T12:22:27;100922.97;;;27.42;24.28
77159;BME280;66129;45.890;13.714;2023-05-07T12:25:02;100993.31;;;27.96;24.08
77159;BME280;66129;45.890;13.714;2023-05-07T12:27:28;100965.88;;;27.44;23.17
77159;BME280;66129;45.890;13.714;2023-05-07T12:29:53;100963.25;;;27.63;23.53
77159;BME280;66129;45.890;13.714;2023-05-07T12:32:20;100948.97;;;27.87;23.82
77159;BME280;66129;45.890;13.714;2023-05-07T12:34:49;100969.16;;;28.22;22.30
77159;BME280;66129;45.890;13.714;2023-05-07T12:37:22;100991.41;;;28.34;23.51
77159;BME280;66129;45.890;13.714;2023-05-07T12:40:06;100940.25;;;28.03;22.34
77159;BME280;66129;45.890;13.714;2023-05-07T12:42:35;100942.66;;;27.72;23.03
77159;BME280;66129;45.890;13.714;2023-05-07T12:45:08;100916.06;;;27.77;24.98
77159;BME280;66129;45.890;13.714;2023-05-07T12:47:33;100982.19;;;28.26;26.16
77159;BME280;66129;45.890;13.714;2023-05-07T12:49:59;100979.94;;;28.52;27.56
77159;BME280;66129;45.890;13.714;2023-05-07T12:52:28;100923.91;;;28.31;27.54
77159;BME280;66129;45.890;13.714;2023-05-07T12:54:53;100942.66;;;28.25;24.53
77159;BME280;66129;45.890;13.714;2023-05-07T12:57:19;100935.28;;;28.14;25.12
77159;BME280;66129;45.890;13.714;2023-05-07T12:59:45;100966.28;;;28.28;25.79
77159;BME280;66129;45.890;13.714;2023-05-07T13:02:11;100932.97;;;27.90;25.69
77159;BME280;66129;45.890;13.714;2023-05-07T13:04:36;100925.28;;;27.68;25.30
77159;BME280;66129;45.890;13.714;2023-05-07T13:07:02;100941.63;;;27.56;26.05
77159;BME280;66129;45.890;13.714;2023-05-07T13:09:28;100962.53;;;27.41;21.93
77159;BME280;66129;45.890;13.714;2023-05-07T13:11:57;100964.75;;;27.50;27.54
77159;BME280;66129;45.890;13.714;2023-05-07T13:14:26;100972.06;;;27.62;27.42
77159;BME280;66129;45.890;13.714;2023-05-07T13:16:55;100922.53;;;27.33;26.51
77159;BME280;66129;45.890;13.714;2023-05-07T13:19:22;100908.75;;;27.10;29.11
77159;BME280;66129;45.890;13.714;2023-05-07T13:21:48;100907.31;;;27.01;27.54
77159;BME280;66129;45.890;13.714;2023-05-07T13:24:14;100906.09;;;26.90;29.11
77159;BME280;66129;45.890;13.714;2023-05-07T13:26:40;100916.06;;;26.63;28.56
77159;BME280;66129;45.890;13.714;2023-05-07T13:29:05;100905.25;;;26.29;29.12
77159;BME280;66129;45.890;13.714;2023-05-07T13:31:31;100949.81;;;26.32;29.86
77159;BME280;66129;45.890;13.714;2023-05-07T13:33:56;100945.13;;;26.19;30.61
77159;BME280;66129;45.890;13.714;2023-05-07T13:36:25;100924.97;;;25.77;30.35
77159;BME280;66129;45.890;13.714;2023-05-07T13:38:50;100920.88;;;25.70;31.19
77159;BME280;66129;45.890;13.714;2023-05-07T13:41:16;100902.00;;;25.37;32.29
77159;BME280;66129;45.890;13.714;2023-05-07T13:43:42;100925.16;;;25.49;32.57
77159;BME280;66129;45.890;13.714;2023-05-07T13:46:07;100962.53;;;25.56;30.99
77159;BME280;66129;45.890;13.714;2023-05-07T13:48:35;100912.91;;;25.04;33.38
77159;BME280;66129;45.890;13.714;2023-05-07T13:51:01;100913.91;;;24.77;30.86
77159;BME280;66129;45.890;13.714;2023-05-07T13:53:26;100981.00;;;25.07;29.10
77159;BME280;66129;45.890;13.714;2023-05-07T13:55:52;100926.59;;;24.65;28.14
77159;BME280;66129;45.890;13.714;2023-05-07T13:58:17;100941.25;;;24.70;28.36
77159;BME280;66129;45.890;13.714;2023-05-07T14:00:43;100982.09;;;25.01;31.86
77159;BME280;66129;45.890;13.714;2023-05-07T14:03:08;100959.31;;;25.02;32.85
77159;BME280;66129;45.890;13.714;2023-05-07T14:05:34;100913.94;;;24.76;31.78
77159;BME280;66129;45.890;13.714;2023-05-07T14:08:00;100917.84;;;24.88;34.83
77159;BME280;66129;45.890;13.714;2023-05-07T14:10:26;100935.81;;;24.75;28.51
77159;BME280;66129;45.890;13.714;2023-05-07T14:12:51;100926.69;;;24.86;31.44
77159;BME280;66129;45.890;13.714;2023-05-07T14:15:18;100892.63;;;24.84;34.47
77159;BME280;66129;45.890;13.714;2023-05-07T14:17:43;100972.84;;;25.39;32.26
77159;BME280;66129;45.890;13.714;2023-05-07T14:20:09;100897.16;;;25.04;30.27
77159;BME280;66129;45.890;13.714;2023-05-07T14:22:35;100977.38;;;25.57;31.04
77159;BME280;66129;45.890;13.714;2023-05-07T14:25:01;100936.19;;;25.36;32.19
77159;BME280;66129;45.890;13.714;2023-05-07T14:27:26;100970.66;;;25.73;31.80
77159;BME280;66129;45.890;13.714;2023-05-07T14:29:52;100985.72;;;26.12;31.54
77159;BME280;66129;45.890;13.714;2023-05-07T14:32:18;100984.94;;;26.53;32.84
77159;BME280;66129;45.890;13.714;2023-05-07T14:34:44;100976.56;;;26.63;31.26
77159;BME280;66129;45.890;13.714;2023-05-07T14:37:09;100988.00;;;26.82;31.75
77159;BME280;66129;45.890;13.714;2023-05-07T14:39:39;100970.69;;;26.97;28.13
77159;BME280;66129;45.890;13.714;2023-05-07T14:42:05;100982.47;;;27.28;28.01
77159;BME280;66129;45.890;13.714;2023-05-07T14:44:36;100984.75;;;27.35;27.68
77159;BME280;66129;45.890;13.714;2023-05-07T14:47:02;100933.66;;;27.21;30.58
77159;BME280;66129;45.890;13.714;2023-05-07T14:49:28;101003.53;;;27.46;30.09
77159;BME280;66129;45.890;13.714;2023-05-07T14:51:53;100934.13;;;26.91;29.63
77159;BME280;66129;45.890;13.714;2023-05-07T14:54:19;100986.03;;;27.07;27.60
77159;BME280;66129;45.890;13.714;2023-05-07T14:56:44;100943.16;;;26.65;30.32
77159;BME280;66129;45.890;13.714;2023-05-07T14:59:10;100947.81;;;26.59;32.57
77159;BME280;66129;45.890;13.714;2023-05-07T15:01:36;100963.34;;;26.65;30.90
77159;BME280;66129;45.890;13.714;2023-05-07T15:04:05;100988.13;;;26.38;30.82
77159;BME280;66129;45.890;13.714;2023-05-07T15:06:34;100967.69;;;26.24;33.56
77159;BME280;66129;45.890;13.714;2023-05-07T15:09:00;100960.84;;;26.20;32.14
77159;BME280;66129;45.890;13.714;2023-05-07T15:11:25;100929.50;;;25.95;30.91
77159;BME280;66129;45.890;13.714;2023-05-07T15:13:51;100950.44;;;25.96;31.92
77159;BME280;66129;45.890;13.714;2023-05-07T15:16:16;100930.06;;;25.58;32.44
77159;BME280;66129;45.890;13.714;2023-05-07T15:18:44;101011.88;;;25.71;30.30
77159;BME280;66129;45.890;13.714;2023-05-07T15:21:11;100990.53;;;25.57;32.18
77159;BME280;66129;45.890;13.714;2023-05-07T15:23:36;100937.63;;;24.97;32.44
77159;BME280;66129;45.890;13.714;2023-05-07T15:26:02;100949.03;;;24.96;32.91
77159;BME280;66129;45.890;13.714;2023-05-07T15:28:27;100969.53;;;25.09;34.00
77159;BME280;66129;45.890;13.714;2023-05-07T15:30:54;100938.53;;;24.96;33.45
77159;BME280;66129;45.890;13.714;2023-05-07T15:33:20;100911.75;;;24.88;33.87
77159;BME280;66129;45.890;13.714;2023-05-07T15:35:46;100945.06;;;25.09;36.57
77159;BME280;66129;45.890;13.714;2023-05-07T15:38:11;100914.38;;;24.88;32.71
77159;BME280;66129;45.890;13.714;2023-05-07T15:40:38;100922.59;;;24.77;34.81
77159;BME280;66129;45.890;13.714;2023-05-07T15:43:08;100981.22;;;25.01;31.95
77159;BME280;66129;45.890;13.714;2023-05-07T15:45:38;100955.88;;;24.77;33.70
77159;BME280;66129;45.890;13.714;2023-05-07T15:48:05;100968.91;;;24.78;33.74
77159;BME280;66129;45.890;13.714;2023-05-07T15:50:31;100946.78;;;24.61;33.59
77159;BME280;66129;45.890;13.714;2023-05-07T15:52:57;100987.03;;;24.86;34.73
77159;BME280;66129;45.890;13.714;2023-05-07T15:55:23;100955.97;;;24.74;33.17
77159;BME280;66129;45.890;13.714;2023-05-07T15:57:48;100938.03;;;24.62;33.07
77159;BME280;66129;45.890;13.714;2023-05-07T16:00:14;100948.16;;;24.73;32.29
77159;BME280;66129;45.890;13.714;2023-05-07T16:02:41;100943.06;;;24.68;32.90
77159;BME280;66129;45.890;13.714;2023-05-07T16:05:07;100959.81;;;24.64;32.89
77159;BME280;66129;45.890;13.714;2023-05-07T16:07:36;100969.06;;;24.50;33.61
77159;BME280;66129;45.890;13.714;2023-05-07T16:10:03;100993.31;;;24.56;32.48
77159;BME280;66129;45.890;13.714;2023-05-07T16:12:29;100982.34;;;24.44;32.71
77159;BME280;66129;45.890;13.714;2023-05-07T16:14:54;100965.25;;;24.32;33.53
77159;BME280;66129;45.890;13.714;2023-05-07T16:17:20;100946.81;;;24.09;34.81
77159;BME280;66129;45.890;13.714;2023-05-07T16:19:45;100921.06;;;23.96;36.77
77159;BME280;66129;45.890;13.714;2023-05-07T16:22:11;100978.78;;;24.20;34.57
77159;BME280;66129;45.890;13.714;2023-05-07T16:24:37;100904.38;;;23.71;36.19
77159;BME280;66129;45.890;13.714;2023-05-07T16:27:02;100975.16;;;23.97;35.01
77159;BME280;66129;45.890;13.714;2023-05-07T16:29:28;100971.00;;;23.90;37.07
77159;BME280;66129;45.890;13.714;2023-05-07T16:31:53;100950.88;;;23.63;39.86
77159;BME280;66129;45.890;13.714;2023-05-07T16:34:19;100957.44;;;23.49;40.05
77159;BME280;66129;45.890;13.714;2023-05-07T16:36:45;100962.72;;;23.47;41.29
77159;BME280;66129;45.890;13.714;2023-05-07T16:39:11;100920.34;;;23.04;43.54
77159;BME280;66129;45.890;13.714;2023-05-07T16:41:39;100978.94;;;23.29;42.71
77159;BME280;66129;45.890;13.714;2023-05-07T16:44:04;100930.31;;;22.92;44.36
77159;BME280;66129;45.890;13.714;2023-05-07T16:46:30;100958.69;;;23.05;45.44
77159;BME280;66129;45.890;13.714;2023-05-07T16:48:58;100971.66;;;23.10;44.24
77159;BME280;66129;45.890;13.714;2023-05-07T16:51:23;100952.03;;;22.94;47.47
77159;BME280;66129;45.890;13.714;2023-05-07T16:53:49;100978.13;;;22.95;49.14
77159;BME280;66129;45.890;13.714;2023-05-07T16:56:15;100966.69;;;22.69;48.78
77159;BME280;66129;45.890;13.714;2023-05-07T16:58:43;100970.28;;;22.65;48.84
77159;BME280;66129;45.890;13.714;2023-05-07T17:01:09;100960.78;;;22.62;48.30
77159;BME280;66129;45.890;13.714;2023-05-07T17:03:36;100971.41;;;22.55;48.46
77159;BME280;66129;45.890;13.714;2023-05-07T17:06:02;100962.75;;;22.53;48.08
77159;BME280;66129;45.890;13.714;2023-05-07T17:08:28;100920.56;;;22.33;47.68
77159;BME280;66129;45.890;13.714;2023-05-07T17:10:53;100983.34;;;22.65;50.00
77159;BME280;66129;45.890;13.714;2023-05-07T17:13:19;100972.66;;;22.41;53.07
77159;BME280;66129;45.890;13.714;2023-05-07T17:15:44;100981.53;;;22.32;52.58
77159;BME280;66129;45.890;13.714;2023-05-07T17:18:12;100988.78;;;22.21;51.55
77159;BME280;66129;45.890;13.714;2023-05-07T17:20:37;100984.63;;;22.13;52.59
77159;BME280;66129;45.890;13.714;2023-05-07T17:23:04;100977.19;;;21.98;53.21
77159;BME280;66129;45.890;13.714;2023-05-07T17:25:31;100992.66;;;22.05;53.02
77159;BME280;66129;45.890;13.714;2023-05-07T17:27:56;100979.88;;;21.93;53.91
77159;BME280;66129;45.890;13.714;2023-05-07T17:30:22;101001.44;;;22.03;54.19
77159;BME280;66129;45.890;13.714;2023-05-07T17:32:47;100987.63;;;21.98;56.10
77159;BME280;66129;45.890;13.714;2023-05-07T17:35:13;100986.41;;;22.12;54.08
77159;BME280;66129;45.890;13.714;2023-05-07T17:37:38;100985.78;;;22.01;56.98
77159;BME280;66129;45.890;13.714;2023-05-07T17:40:05;100994.25;;;22.12;57.59
77159;BME280;66129;45.890;13.714;2023-05-07T17:42:30;100978.44;;;21.80;57.88
77159;BME280;66129;45.890;13.714;2023-05-07T17:44:56;100988.19;;;21.74;57.98
77159;BME280;66129;45.890;13.714;2023-05-07T17:47:21;100985.91;;;21.57;59.70
77159;BME280;66129;45.890;13.714;2023-05-07T17:49:47;100998.31;;;21.46;59.73
77159;BME280;66129;45.890;13.714;2023-05-07T17:52:12;101011.63;;;21.33;60.46
77159;BME280;66129;45.890;13.714;2023-05-07T17:54:38;100997.91;;;21.24;60.32
77159;BME280;66129;45.890;13.714;2023-05-07T17:57:03;101005.75;;;21.24;60.75
77159;BME280;66129;45.890;13.714;2023-05-07T17:59:28;101015.56;;;21.10;63.53
77159;BME280;66129;45.890;13.714;2023-05-07T18:01:54;100982.19;;;20.83;63.49
77159;BME280;66129;45.890;13.714;2023-05-07T18:04:20;101008.91;;;20.95;62.04
77159;BME280;66129;45.890;13.714;2023-05-07T18:06:46;100992.47;;;20.92;60.88